ENRO

Røros Airport

Røros, Norway
METAR ENRO 180020Z AUTO 26004KT 220V030 9999NDV NCD M01/M01 Q1011
Observed Flight Rules
Oct-18 @ 00:20 UTC (46 minutes ago)
Wind Clouds
260° at 4 knots
  • Clear skies
Temperatures Readings
Current -1°C / 30°F
Dewpoint -1°C / 30°F
Humidity 100%
Altimeter 29.85" Hg
Pressure 1011 hPa
Elevation 626
METAR ENRO 180020Z AUTO 26004KT 220V030 9999NDV NCD M01/M01 Q1011
Observed Flight Rules
Oct-18 @ 00:20 UTC
(46 minutes ago)
Wind
260° at 4 knots
Clouds
  • Clear skies
Temperature Dewpoint
-1°C / 30°F -1°C / 30°F
Humidity Altimeter Pressure
100% 29.85" Hg 1011 hPa